createdAt,value
2022-10-21T00:00:11.766Z,11.65
2022-10-21T00:01:11.777Z,11.68
2022-10-21T00:02:11.764Z,11.67
2022-10-21T00:03:11.776Z,11.68
2022-10-21T00:04:11.738Z,11.68
2022-10-21T00:05:11.740Z,11.70
2022-10-21T00:06:11.716Z,11.68
2022-10-21T00:07:11.702Z,11.70
2022-10-21T00:08:11.713Z,11.71
2022-10-21T00:09:11.704Z,11.71
2022-10-21T00:10:11.666Z,11.70
2022-10-21T00:11:11.702Z,11.74
2022-10-21T00:12:11.655Z,11.71
2022-10-21T00:13:11.630Z,11.70
2022-10-21T00:14:11.616Z,11.71
2022-10-21T00:15:11.607Z,11.74
2022-10-21T00:16:11.663Z,11.73
2022-10-21T00:17:12.436Z,11.74
2022-10-21T00:18:11.666Z,11.74
2022-10-21T00:19:11.651Z,11.74
2022-10-21T00:20:11.725Z,11.77
2022-10-21T00:21:11.606Z,11.74
2022-10-21T00:22:11.584Z,11.76
2022-10-21T00:23:11.576Z,11.73
2022-10-21T00:24:11.557Z,11.74
2022-10-21T00:25:11.535Z,11.73
2022-10-21T00:26:11.565Z,11.76
2022-10-21T00:27:11.521Z,11.74
2022-10-21T00:28:11.528Z,11.76
2022-10-21T00:29:11.542Z,11.76
2022-10-21T00:30:11.495Z,11.76
2022-10-21T00:31:11.499Z,11.76
2022-10-21T00:32:11.495Z,11.74
2022-10-21T00:33:11.461Z,11.77
2022-10-21T00:34:11.448Z,11.74
2022-10-21T00:35:11.425Z,11.76
2022-10-21T00:36:11.434Z,11.76
2022-10-21T00:37:11.428Z,11.78
2022-10-21T00:38:11.450Z,11.76
2022-10-21T00:39:11.432Z,11.77
2022-10-21T00:40:11.390Z,11.78
2022-10-21T00:41:11.377Z,11.78
2022-10-21T00:42:11.361Z,11.78
2022-10-21T00:43:11.344Z,11.78
2022-10-21T00:44:11.324Z,11.78
2022-10-21T00:45:11.322Z,11.80
2022-10-21T00:46:11.304Z,11.80
2022-10-21T00:47:11.304Z,11.80
2022-10-21T00:48:11.310Z,11.81
2022-10-21T00:49:11.283Z,11.83
2022-10-21T00:50:11.269Z,11.85
2022-10-21T00:51:11.243Z,11.85
2022-10-21T00:52:11.294Z,11.83
2022-10-21T00:53:11.233Z,11.88
2022-10-21T00:54:11.361Z,11.89
2022-10-21T00:55:11.203Z,11.89
2022-10-21T00:56:15.510Z,11.89
2022-10-21T00:57:12.240Z,11.93
2022-10-21T00:58:11.190Z,11.93
2022-10-21T00:59:11.177Z,11.93
2022-10-21T01:00:11.155Z,11.93
2022-10-21T01:01:11.206Z,11.95
2022-10-21T01:02:11.123Z,11.95
2022-10-21T01:03:11.142Z,11.97
2022-10-21T01:04:11.111Z,11.99
2022-10-21T01:05:11.097Z,11.97
2022-10-21T01:06:11.078Z,11.99
2022-10-21T01:07:11.100Z,12.02
2022-10-21T01:08:11.053Z,12.03
2022-10-21T01:09:11.148Z,12.03
2022-10-21T01:10:11.031Z,12.05
2022-10-21T01:11:11.050Z,12.07
2022-10-21T01:12:11.064Z,12.08
2022-10-21T01:13:10.994Z,12.07
2022-10-21T01:14:11.001Z,12.10
2022-10-21T01:15:10.974Z,12.11
2022-10-21T01:16:10.969Z,12.14
2022-10-21T01:17:20.653Z,12.14
2022-10-21T01:18:11.948Z,12.12
2022-10-21T01:19:10.923Z,12.14
2022-10-21T01:20:10.920Z,12.15
2022-10-21T01:21:10.924Z,12.18
2022-10-21T01:22:10.905Z,12.20
2022-10-21T01:23:10.874Z,12.23
2022-10-21T01:24:10.873Z,12.25
2022-10-21T01:25:10.856Z,12.29
2022-10-21T01:26:10.851Z,12.29
2022-10-21T01:27:10.838Z,12.30
2022-10-21T01:28:10.846Z,12.29
2022-10-21T01:29:10.813Z,12.30
2022-10-21T01:30:10.823Z,12.30
2022-10-21T01:31:10.812Z,12.28
2022-10-21T01:32:10.796Z,12.28
2022-10-21T01:34:10.763Z,12.29
2022-10-21T01:35:10.752Z,12.29
2022-10-21T01:36:10.761Z,12.28
2022-10-21T01:37:10.723Z,12.29
2022-10-21T01:38:10.732Z,12.29
2022-10-21T01:39:10.739Z,12.29
2022-10-21T01:40:10.726Z,12.29
2022-10-21T01:41:10.676Z,12.32
2022-10-21T01:42:10.694Z,12.33
2022-10-21T01:43:10.684Z,12.37
2022-10-21T01:44:10.664Z,12.36
2022-10-21T01:45:10.678Z,12.40
2022-10-21T01:46:10.657Z,12.43
2022-10-21T01:47:10.625Z,12.40
2022-10-21T01:48:10.630Z,12.40
2022-10-21T01:49:10.602Z,12.44
2022-10-21T01:50:10.606Z,12.43
2022-10-21T01:51:10.594Z,12.40
2022-10-21T01:52:10.566Z,12.44
2022-10-21T01:53:10.591Z,12.44
2022-10-21T01:54:10.543Z,12.44
2022-10-21T01:55:10.565Z,12.48
2022-10-21T01:56:10.523Z,12.50
2022-10-21T01:57:10.520Z,12.54
2022-10-21T01:58:10.521Z,12.58
2022-10-21T01:59:10.489Z,12.62
2022-10-21T02:00:10.571Z,12.65
2022-10-21T02:01:10.529Z,12.65
2022-10-21T02:02:10.494Z,12.65
2022-10-21T02:03:10.491Z,12.68
2022-10-21T02:04:10.441Z,12.69
2022-10-21T02:05:10.422Z,12.70
2022-10-21T02:06:10.406Z,12.68
2022-10-21T02:07:10.402Z,12.73
2022-10-21T02:08:10.391Z,12.73
2022-10-21T02:09:10.435Z,12.75
2022-10-21T02:10:10.414Z,12.76
2022-10-21T02:11:10.352Z,12.75
2022-10-21T02:12:10.353Z,12.78
2022-10-21T02:13:10.342Z,12.76
2022-10-21T02:14:10.341Z,12.78
2022-10-21T02:15:10.335Z,12.80
2022-10-21T02:16:10.311Z,12.76
2022-10-21T02:17:10.283Z,12.78
2022-10-21T02:18:10.261Z,12.78
2022-10-21T02:19:10.277Z,12.81
2022-10-21T02:20:10.242Z,12.83
2022-10-21T02:21:10.251Z,12.81
2022-10-21T02:22:10.221Z,12.83
2022-10-21T02:23:10.228Z,12.84
2022-10-21T02:24:10.190Z,12.81
2022-10-21T02:25:10.195Z,12.81
2022-10-21T02:26:10.171Z,12.81
2022-10-21T02:27:10.168Z,12.83
2022-10-21T02:28:10.169Z,12.81
2022-10-21T02:29:10.141Z,12.81
2022-10-21T02:30:10.135Z,12.78
2022-10-21T02:31:10.121Z,12.81
2022-10-21T02:32:10.111Z,12.73
2022-10-21T02:33:10.120Z,12.73
2022-10-21T02:34:10.092Z,12.70
2022-10-21T02:35:10.072Z,12.72
2022-10-21T02:36:10.099Z,12.70
2022-10-21T02:37:10.063Z,12.68
2022-10-21T02:38:10.066Z,12.69
2022-10-21T02:39:10.034Z,12.68
2022-10-21T02:40:10.032Z,12.62
2022-10-21T02:41:10.052Z,12.62
2022-10-21T02:42:10.008Z,12.62
2022-10-21T02:43:10.001Z,12.58
2022-10-21T02:44:09.994Z,12.58
2022-10-21T02:45:09.973Z,12.55
2022-10-21T02:46:09.981Z,12.53
2022-10-21T02:48:09.960Z,12.53
2022-10-21T02:49:09.935Z,12.48
2022-10-21T02:50:09.912Z,12.45
2022-10-21T02:51:09.908Z,12.44
2022-10-21T02:52:09.914Z,12.40
2022-10-21T02:53:09.884Z,12.39
2022-10-21T02:54:09.871Z,12.36
2022-10-21T02:55:09.888Z,12.35
2022-10-21T02:56:09.842Z,12.32
2022-10-21T02:57:09.846Z,12.29
2022-10-21T02:58:09.830Z,12.28
2022-10-21T02:59:09.821Z,12.25
2022-10-21T03:00:09.800Z,12.23
2022-10-21T03:01:09.829Z,12.21
2022-10-21T03:02:09.789Z,12.20
2022-10-21T03:03:09.788Z,12.15
2022-10-21T03:04:09.760Z,12.14
2022-10-21T03:05:09.830Z,12.11
2022-10-21T03:06:09.741Z,12.11
2022-10-21T03:07:09.736Z,12.08
2022-10-21T03:08:09.731Z,12.08
2022-10-21T03:09:09.712Z,12.07
2022-10-21T03:10:09.701Z,12.05
2022-10-21T03:11:09.695Z,12.03
2022-10-21T03:12:09.683Z,12.00
2022-10-21T03:13:09.670Z,11.99
2022-10-21T03:14:09.664Z,11.99
2022-10-21T03:15:09.664Z,11.95
2022-10-21T03:16:09.722Z,11.96
2022-10-21T03:17:09.619Z,11.96
2022-10-21T03:18:09.623Z,11.96
2022-10-21T03:19:09.600Z,11.95
2022-10-21T03:20:09.592Z,11.89
2022-10-21T03:21:09.570Z,11.88
2022-10-21T03:22:09.585Z,11.86
2022-10-21T03:23:09.557Z,11.86
2022-10-21T03:24:15.575Z,11.85
2022-10-21T03:25:10.542Z,11.85
2022-10-21T03:26:09.523Z,11.81
2022-10-21T03:27:09.554Z,11.83
2022-10-21T03:28:09.492Z,11.81
2022-10-21T03:29:09.500Z,11.80
2022-10-21T03:30:09.470Z,11.78
2022-10-21T03:31:09.474Z,11.78
2022-10-21T03:32:09.450Z,11.77
2022-10-21T03:33:09.458Z,11.76
2022-10-21T03:34:09.509Z,11.73
2022-10-21T03:35:09.450Z,11.74
2022-10-21T03:36:09.408Z,11.73
2022-10-21T03:37:09.460Z,11.73
2022-10-21T03:38:09.408Z,11.71
2022-10-21T03:39:09.395Z,11.73
2022-10-21T03:40:12.264Z,11.70
2022-10-21T03:41:09.363Z,11.70
2022-10-21T03:42:09.346Z,11.68
2022-10-21T03:43:09.344Z,11.67
2022-10-21T03:44:09.364Z,11.65
2022-10-21T03:45:09.317Z,11.63
2022-10-21T03:46:09.303Z,11.62
2022-10-21T03:47:09.302Z,11.60
2022-10-21T03:48:09.312Z,11.58
2022-10-21T03:49:15.532Z,11.58
2022-10-21T03:50:13.217Z,11.56
2022-10-21T03:51:10.298Z,11.55
2022-10-21T03:52:09.229Z,11.55
2022-10-21T03:53:18.515Z,11.52
2022-10-21T03:54:10.234Z,11.49
2022-10-21T03:55:09.216Z,11.51
2022-10-21T03:56:09.191Z,11.44
2022-10-21T03:57:09.210Z,11.44
2022-10-21T03:58:09.171Z,11.45
2022-10-21T03:59:09.178Z,11.44
2022-10-21T04:00:09.195Z,11.43
2022-10-21T04:01:09.143Z,11.38
2022-10-21T04:02:09.145Z,11.38
2022-10-21T04:03:09.129Z,11.37
2022-10-21T04:04:09.108Z,11.38
2022-10-21T04:05:09.099Z,11.37
2022-10-21T04:06:09.145Z,11.34
2022-10-21T04:07:09.069Z,11.33
2022-10-21T04:08:09.060Z,11.31
2022-10-21T04:09:09.157Z,11.31
2022-10-21T04:10:09.041Z,11.30
2022-10-21T04:11:09.032Z,11.26
2022-10-21T04:12:09.034Z,11.23
2022-10-21T04:13:08.999Z,11.25
2022-10-21T04:14:11.621Z,11.25
2022-10-21T04:15:09.997Z,11.22
2022-10-21T04:16:08.961Z,11.20
2022-10-21T04:17:09.000Z,11.20
2022-10-21T04:18:08.950Z,11.19
2022-10-21T04:19:08.972Z,11.18
2022-10-21T04:20:08.944Z,11.18
2022-10-21T04:21:08.921Z,11.18
2022-10-21T04:22:08.915Z,11.16
2022-10-21T04:23:08.898Z,11.13
2022-10-21T04:24:08.898Z,11.10
2022-10-21T04:25:08.970Z,11.12
2022-10-21T04:26:08.950Z,11.07
2022-10-21T04:27:08.847Z,11.08
2022-10-21T04:28:08.876Z,11.05
2022-10-21T04:29:08.845Z,11.07
2022-10-21T04:30:08.884Z,11.05
2022-10-21T04:31:08.817Z,11.05
2022-10-21T04:32:08.798Z,11.04
2022-10-21T04:33:08.786Z,11.05
2022-10-21T04:34:08.879Z,11.01
2022-10-21T04:35:08.763Z,11.00
2022-10-21T04:36:09.296Z,11.00
2022-10-21T04:37:08.747Z,11.00
2022-10-21T04:38:08.748Z,10.98
2022-10-21T04:39:08.717Z,10.98
2022-10-21T04:40:08.739Z,10.94
2022-10-21T04:41:08.763Z,10.95
2022-10-21T04:42:08.687Z,10.95
2022-10-21T04:43:08.717Z,10.95
2022-10-21T04:44:08.677Z,10.92
2022-10-21T04:45:08.666Z,10.89
2022-10-21T04:46:09.993Z,10.90
2022-10-21T04:47:08.671Z,10.89
2022-10-21T04:48:08.630Z,10.89
2022-10-21T04:49:08.617Z,10.87
2022-10-21T04:50:08.607Z,10.87
2022-10-21T04:51:08.587Z,10.86
2022-10-21T04:52:08.593Z,10.87
2022-10-21T04:53:08.576Z,10.87
2022-10-21T04:54:08.567Z,10.86
2022-10-21T04:55:08.548Z,10.84
2022-10-21T04:56:08.557Z,10.84
2022-10-21T04:57:08.535Z,10.87
2022-10-21T04:58:08.596Z,10.84
2022-10-21T04:59:08.526Z,10.84
2022-10-21T05:00:08.570Z,10.83
2022-10-21T05:01:08.528Z,10.83
2022-10-21T05:02:08.482Z,10.82
2022-10-21T05:03:08.470Z,10.80
2022-10-21T05:04:08.464Z,10.82
2022-10-21T05:05:08.449Z,10.83
2022-10-21T05:06:08.438Z,10.83
2022-10-21T05:07:08.439Z,10.83
2022-10-21T05:08:11.517Z,10.82
2022-10-21T05:09:08.460Z,10.83
2022-10-21T05:10:08.417Z,10.82
2022-10-21T05:11:08.466Z,10.80
2022-10-21T05:12:08.378Z,10.80
2022-10-21T05:13:08.364Z,10.83
2022-10-21T05:14:08.349Z,10.80
2022-10-21T05:15:08.347Z,10.82
2022-10-21T05:16:08.339Z,10.82
2022-10-21T05:17:08.316Z,10.82
2022-10-21T05:18:08.312Z,10.82
2022-10-21T05:19:09.259Z,10.79
2022-10-21T05:20:08.305Z,10.80
2022-10-21T05:21:08.273Z,10.79
2022-10-21T05:22:08.335Z,10.79
2022-10-21T05:23:08.368Z,10.79
2022-10-21T05:24:08.268Z,10.80
2022-10-21T05:25:08.227Z,10.79
2022-10-21T05:26:08.232Z,10.75
2022-10-21T05:27:08.236Z,10.79
2022-10-21T05:28:08.208Z,10.79
2022-10-21T05:29:08.276Z,10.79
2022-10-21T05:30:08.189Z,10.79
2022-10-21T05:31:08.217Z,10.75
2022-10-21T05:32:08.178Z,10.75
2022-10-21T05:33:08.223Z,10.77
2022-10-21T05:34:08.158Z,10.76
2022-10-21T05:35:08.171Z,10.76
2022-10-21T05:36:08.138Z,10.76
2022-10-21T05:37:08.108Z,10.75
2022-10-21T05:38:08.122Z,10.72
2022-10-21T05:39:08.090Z,10.72
2022-10-21T05:40:08.089Z,10.75
2022-10-21T05:41:08.068Z,10.72
2022-10-21T05:42:08.074Z,10.71
2022-10-21T05:43:08.053Z,10.69
2022-10-21T05:44:08.090Z,10.69
2022-10-21T05:45:08.038Z,10.71
2022-10-21T05:46:08.009Z,10.71
2022-10-21T05:47:08.016Z,10.72
2022-10-21T05:48:08.000Z,10.69
2022-10-21T05:49:08.229Z,10.71
2022-10-21T05:50:08.041Z,10.69
2022-10-21T05:51:07.966Z,10.68
2022-10-21T05:52:07.983Z,10.68
2022-10-21T05:53:07.970Z,10.69
2022-10-21T05:54:07.955Z,10.69
2022-10-21T05:55:07.908Z,10.68
2022-10-21T05:56:07.920Z,10.69
2022-10-21T05:57:07.906Z,10.67
2022-10-21T05:58:07.913Z,10.69
2022-10-21T05:59:10.097Z,10.69
2022-10-21T06:00:07.867Z,10.68
2022-10-21T06:01:07.889Z,10.68
2022-10-21T06:02:07.881Z,10.69
2022-10-21T06:03:07.863Z,10.68
2022-10-21T06:04:07.835Z,10.68
2022-10-21T06:05:07.983Z,10.67
2022-10-21T06:06:07.814Z,10.67
2022-10-21T06:07:07.822Z,10.69
2022-10-21T06:08:07.801Z,10.68
2022-10-21T06:09:07.836Z,10.67
2022-10-21T06:10:07.755Z,10.67
2022-10-21T06:11:07.734Z,10.65
2022-10-21T06:12:07.749Z,10.64
2022-10-21T06:13:07.724Z,10.64
2022-10-21T06:14:07.723Z,10.62
2022-10-21T06:15:07.755Z,10.61
2022-10-21T06:16:07.701Z,10.61
2022-10-21T06:17:07.688Z,10.61
2022-10-21T06:18:07.734Z,10.62
2022-10-21T06:19:07.695Z,10.61
2022-10-21T06:20:07.662Z,10.64
2022-10-21T06:21:07.645Z,10.61
2022-10-21T06:22:07.657Z,10.61
2022-10-21T06:23:07.637Z,10.58
2022-10-21T06:24:07.664Z,10.59
2022-10-21T06:25:07.683Z,10.59
2022-10-21T06:26:07.603Z,10.62
2022-10-21T06:27:07.616Z,10.59
2022-10-21T06:28:07.594Z,10.58
2022-10-21T06:29:07.558Z,10.59
2022-10-21T06:30:07.602Z,10.59
2022-10-21T06:31:07.531Z,10.59
2022-10-21T06:32:07.522Z,10.58
2022-10-21T06:33:07.525Z,10.57
2022-10-21T06:34:07.581Z,10.59
2022-10-21T06:35:07.514Z,10.59
2022-10-21T06:36:07.483Z,10.58
2022-10-21T06:37:07.462Z,10.58
2022-10-21T06:38:07.454Z,10.58
2022-10-21T06:39:07.450Z,10.61
2022-10-21T06:40:07.475Z,10.58
2022-10-21T06:41:10.541Z,10.59
2022-10-21T06:42:08.425Z,10.61
2022-10-21T06:43:07.431Z,10.61
2022-10-21T06:44:07.406Z,10.59
2022-10-21T06:45:07.447Z,10.58
2022-10-21T06:46:07.401Z,10.59
2022-10-21T06:47:07.371Z,10.59
2022-10-21T06:48:07.363Z,10.59
2022-10-21T06:49:07.346Z,10.61
2022-10-21T06:50:07.371Z,10.64
2022-10-21T06:51:07.327Z,10.62
2022-10-21T06:52:07.311Z,10.65
2022-10-21T06:53:07.303Z,10.67
2022-10-21T06:54:07.306Z,10.68
2022-10-21T06:55:07.392Z,10.68
2022-10-21T06:56:07.261Z,10.69
2022-10-21T06:57:07.284Z,10.72
2022-10-21T06:58:07.251Z,10.75
2022-10-21T06:59:07.222Z,10.76
2022-10-21T07:00:07.244Z,10.77
2022-10-21T07:01:16.455Z,10.79
2022-10-21T07:02:08.241Z,10.80
2022-10-21T07:03:07.200Z,10.83
2022-10-21T07:04:07.182Z,10.84
2022-10-21T07:05:07.194Z,10.86
2022-10-21T07:06:07.160Z,10.87
2022-10-21T07:07:07.174Z,10.89
2022-10-21T07:08:09.411Z,10.90
2022-10-21T07:09:07.168Z,10.95
2022-10-21T07:10:07.142Z,10.97
2022-10-21T07:11:07.119Z,11.00
2022-10-21T07:12:07.125Z,10.97
2022-10-21T07:13:07.218Z,11.01
2022-10-21T07:14:07.083Z,11.04
2022-10-21T07:15:07.069Z,11.07
2022-10-21T07:16:07.137Z,11.08
2022-10-21T07:17:07.060Z,11.10
2022-10-21T07:18:07.040Z,11.12
2022-10-21T07:19:07.021Z,11.13
2022-10-21T07:20:07.043Z,11.15
2022-10-21T07:21:07.079Z,11.16
2022-10-21T07:22:07.004Z,11.16
2022-10-21T07:23:06.991Z,11.18
2022-10-21T07:24:06.966Z,11.22
2022-10-21T07:25:06.946Z,11.26
2022-10-21T07:26:06.979Z,11.27
2022-10-21T07:27:07.002Z,11.31
2022-10-21T07:28:06.921Z,11.33
2022-10-21T07:29:06.927Z,11.35
2022-10-21T07:30:06.972Z,11.40
2022-10-21T07:31:06.884Z,11.44
2022-10-21T07:32:06.901Z,11.48
2022-10-21T07:33:07.067Z,11.52
2022-10-21T07:34:07.010Z,11.53
2022-10-21T07:35:06.869Z,11.59
2022-10-21T07:36:06.834Z,11.59
2022-10-21T07:37:06.825Z,11.63
2022-10-21T07:38:06.826Z,11.67
2022-10-21T07:39:06.821Z,11.71
2022-10-21T07:40:06.802Z,11.73
2022-10-21T07:41:06.771Z,11.77
2022-10-21T07:42:06.774Z,11.81
2022-10-21T07:43:06.920Z,11.86
2022-10-21T07:44:06.771Z,11.88
2022-10-21T07:45:06.866Z,11.95
2022-10-21T07:46:07.095Z,11.99
2022-10-21T07:47:06.698Z,11.99
2022-10-21T07:48:06.699Z,12.03
2022-10-21T07:49:06.700Z,12.10
2022-10-21T07:50:06.709Z,12.14
2022-10-21T07:51:06.691Z,12.17
2022-10-21T07:52:06.698Z,12.20
2022-10-21T07:53:12.449Z,12.25
2022-10-21T07:54:07.654Z,12.28
2022-10-21T07:55:06.618Z,12.30
2022-10-21T07:56:06.622Z,12.33
2022-10-21T07:57:06.611Z,12.39
2022-10-21T07:58:06.600Z,12.44
2022-10-21T07:59:11.695Z,12.51
2022-10-21T08:00:07.620Z,12.53
2022-10-21T08:01:06.621Z,12.58
2022-10-21T08:02:06.588Z,12.62
2022-10-21T08:03:06.553Z,12.66
2022-10-21T08:04:06.662Z,12.70
2022-10-21T08:05:06.552Z,12.75
2022-10-21T08:06:06.576Z,12.78
2022-10-21T08:07:09.197Z,12.83
2022-10-21T08:08:07.482Z,12.84
2022-10-21T08:09:06.614Z,12.87
2022-10-21T08:10:06.512Z,12.88
2022-10-21T08:11:06.492Z,12.93
2022-10-21T08:12:09.213Z,12.95
2022-10-21T08:13:07.419Z,12.98
2022-10-21T08:14:06.711Z,13.02
2022-10-21T08:15:06.559Z,13.02
2022-10-21T08:16:06.400Z,13.05
2022-10-21T08:17:06.398Z,13.09
2022-10-21T08:18:06.393Z,13.13
2022-10-21T08:19:06.382Z,13.16
2022-10-21T08:20:06.388Z,13.20
2022-10-21T08:21:06.421Z,13.21
2022-10-21T08:22:06.349Z,13.24
2022-10-21T08:23:06.318Z,13.26
2022-10-21T08:24:06.311Z,13.27
2022-10-21T08:25:06.311Z,13.33
2022-10-21T08:26:06.281Z,13.36
2022-10-21T08:27:06.293Z,13.36
2022-10-21T08:28:06.248Z,13.40
2022-10-21T08:29:06.269Z,13.45
2022-10-21T08:30:06.262Z,13.47
2022-10-21T08:31:06.294Z,13.52
2022-10-21T08:32:06.542Z,13.52
2022-10-21T08:33:06.190Z,13.58
2022-10-21T08:34:06.192Z,13.61
2022-10-21T08:35:06.194Z,13.61
2022-10-21T08:36:06.169Z,13.61
2022-10-21T08:37:06.188Z,13.65
2022-10-21T08:39:06.164Z,13.70
2022-10-21T08:40:06.148Z,13.68
2022-10-21T08:41:06.117Z,13.71
2022-10-21T08:42:06.369Z,13.73
2022-10-21T08:43:06.112Z,13.76
2022-10-21T08:44:06.086Z,13.78
2022-10-21T08:45:06.137Z,13.82
2022-10-21T08:46:06.085Z,13.83
2022-10-21T08:47:06.097Z,13.87
2022-10-21T08:48:06.197Z,13.91
2022-10-21T08:49:06.155Z,13.95
2022-10-21T08:50:06.118Z,13.95
2022-10-21T08:51:06.047Z,13.97
2022-10-21T08:52:06.018Z,13.98
2022-10-21T08:53:06.249Z,14.03
2022-10-21T08:54:05.982Z,14.03
2022-10-21T08:55:06.048Z,14.05
2022-10-21T08:56:06.042Z,14.11
2022-10-21T08:57:06.040Z,14.12
2022-10-21T08:58:06.001Z,14.15
2022-10-21T08:59:05.935Z,14.15
2022-10-21T09:00:05.987Z,14.13
2022-10-21T09:01:05.947Z,14.16
2022-10-21T09:02:05.896Z,14.16
2022-10-21T09:03:06.022Z,14.18
2022-10-21T09:04:05.877Z,14.16
2022-10-21T09:05:05.910Z,14.15
2022-10-21T09:06:05.847Z,14.12
2022-10-21T09:07:06.038Z,14.13
2022-10-21T09:08:05.849Z,14.18
2022-10-21T09:09:05.874Z,14.19
2022-10-21T09:10:05.808Z,14.20
2022-10-21T09:11:05.810Z,14.26
2022-10-21T09:12:05.850Z,14.26
2022-10-21T09:13:05.829Z,14.31
2022-10-21T09:14:05.764Z,14.37
2022-10-21T09:15:08.762Z,14.41
2022-10-21T09:16:06.755Z,14.44
2022-10-21T09:17:05.814Z,14.52
2022-10-21T09:18:05.798Z,14.58
2022-10-21T09:19:05.754Z,14.62
2022-10-21T09:20:05.759Z,14.66
2022-10-21T09:21:06.121Z,14.71
2022-10-21T09:22:29.642Z,14.73
2022-10-21T09:23:06.738Z,14.74
2022-10-21T09:24:05.704Z,14.77
2022-10-21T09:25:05.713Z,14.78
2022-10-21T09:26:05.668Z,14.81
2022-10-21T09:27:05.704Z,14.85
2022-10-21T09:28:05.653Z,14.87
2022-10-21T09:29:05.638Z,14.92
2022-10-21T09:30:05.637Z,14.93
2022-10-21T09:31:05.680Z,14.97
2022-10-21T09:32:05.618Z,14.99
2022-10-21T09:33:05.648Z,15.02
2022-10-21T09:34:05.581Z,15.04
2022-10-21T09:35:05.602Z,15.05
2022-10-21T09:36:05.638Z,15.04
2022-10-21T09:37:05.568Z,15.02
2022-10-21T09:38:05.658Z,15.00
2022-10-21T09:39:05.550Z,15.00
2022-10-21T09:40:05.667Z,14.97
2022-10-21T09:41:05.518Z,14.99
2022-10-21T09:42:11.519Z,14.97
2022-10-21T09:43:06.540Z,15.00
2022-10-21T09:44:05.679Z,15.04
2022-10-21T09:45:05.548Z,15.08
2022-10-21T09:46:05.503Z,15.10
2022-10-21T09:47:05.700Z,15.14
2022-10-21T09:48:05.418Z,15.15
2022-10-21T09:50:07.930Z,15.18
2022-10-21T09:51:05.431Z,15.19
2022-10-21T09:52:05.376Z,15.19
2022-10-21T09:53:05.406Z,15.23
2022-10-21T09:54:05.353Z,15.25
2022-10-21T09:55:05.348Z,15.26
2022-10-21T09:56:05.453Z,15.27
2022-10-21T09:57:05.320Z,15.32
2022-10-21T09:58:05.312Z,15.33
2022-10-21T09:59:07.623Z,15.35
2022-10-21T10:00:08.264Z,15.35
2022-10-21T10:01:06.568Z,15.37
2022-10-21T10:02:05.329Z,15.35
2022-10-21T10:03:05.255Z,15.36
2022-10-21T10:04:05.431Z,15.35
2022-10-21T10:05:05.210Z,15.36
2022-10-21T10:06:05.227Z,15.36
2022-10-21T10:07:05.205Z,15.37
2022-10-21T10:08:05.194Z,15.37
2022-10-21T10:09:05.237Z,15.41
2022-10-21T10:10:05.235Z,15.41
2022-10-21T10:11:05.147Z,15.45
2022-10-21T10:12:05.226Z,15.47
2022-10-21T10:13:05.158Z,15.47
2022-10-21T10:14:05.118Z,15.50
2022-10-21T10:15:05.320Z,15.52
2022-10-21T10:16:05.167Z,15.54
2022-10-21T10:17:05.191Z,15.55
2022-10-21T10:18:05.217Z,15.55
2022-10-21T10:19:05.137Z,15.60
2022-10-21T10:20:05.306Z,15.60
2022-10-21T10:21:05.138Z,15.63
2022-10-21T10:22:10.086Z,15.65
2022-10-21T10:23:06.060Z,15.67
2022-10-21T10:24:05.161Z,15.63
2022-10-21T10:25:05.108Z,15.65
2022-10-21T10:26:05.065Z,15.65
2022-10-21T10:27:05.137Z,15.66
2022-10-21T10:28:05.048Z,15.66
2022-10-21T10:29:05.091Z,15.67
2022-10-21T10:30:04.983Z,15.69
2022-10-21T10:31:05.078Z,15.73
2022-10-21T10:32:05.000Z,15.75
2022-10-21T10:33:05.158Z,15.78
2022-10-21T10:34:04.932Z,15.78
2022-10-21T10:35:04.951Z,15.84
2022-10-21T10:36:05.298Z,15.84
2022-10-21T10:37:05.063Z,15.88
2022-10-21T10:38:04.903Z,15.90
2022-10-21T10:39:04.946Z,15.92
2022-10-21T10:40:04.893Z,15.96
2022-10-21T10:41:04.958Z,15.99
2022-10-21T10:42:04.893Z,16.02
2022-10-21T10:43:04.941Z,16.06
2022-10-21T10:44:04.844Z,16.08
2022-10-21T10:45:04.986Z,16.16
2022-10-21T10:46:04.808Z,16.12
2022-10-21T10:47:04.874Z,16.21
2022-10-21T10:48:04.810Z,16.24
2022-10-21T10:49:04.851Z,16.26
2022-10-21T10:50:04.787Z,16.29
2022-10-21T10:51:04.826Z,16.34
2022-10-21T10:52:04.780Z,16.37
2022-10-21T10:53:04.860Z,16.40
2022-10-21T10:54:04.722Z,16.41
2022-10-21T10:55:04.935Z,16.46
2022-10-21T10:56:04.722Z,16.47
2022-10-21T10:57:04.697Z,16.54
2022-10-21T10:58:12.434Z,16.54
2022-10-21T10:59:05.697Z,16.58
2022-10-21T11:00:04.741Z,16.61
2022-10-21T11:01:04.754Z,16.64
2022-10-21T11:02:04.641Z,16.65
2022-10-21T11:03:04.627Z,16.65
2022-10-21T11:04:04.685Z,16.65
2022-10-21T11:05:04.605Z,16.64
2022-10-21T11:06:04.626Z,16.61
2022-10-21T11:07:04.557Z,16.62
2022-10-21T11:08:04.519Z,16.62
2022-10-21T11:09:04.798Z,16.64
2022-10-21T11:10:04.567Z,16.62
2022-10-21T11:11:04.507Z,16.62
2022-10-21T11:12:04.584Z,16.59
2022-10-21T11:13:04.599Z,16.58
2022-10-21T11:14:04.468Z,16.55
2022-10-21T11:15:04.675Z,16.55
2022-10-21T11:16:04.479Z,16.50
2022-10-21T11:17:04.457Z,16.49
2022-10-21T11:18:23.130Z,16.44
2022-10-21T11:19:05.407Z,16.47
2022-10-21T11:20:04.529Z,16.49
2022-10-21T11:21:04.423Z,16.46
2022-10-21T11:22:06.142Z,16.46
2022-10-21T11:23:04.397Z,16.47
2022-10-21T11:24:04.421Z,16.41
2022-10-21T11:25:04.465Z,16.44
2022-10-21T11:26:04.358Z,16.44
2022-10-21T11:27:04.552Z,16.43
2022-10-21T11:28:04.404Z,16.46
2022-10-21T11:29:04.836Z,16.51
2022-10-21T11:30:04.287Z,16.49
2022-10-21T11:31:04.334Z,16.50
2022-10-21T11:32:11.717Z,16.49
2022-10-21T11:33:05.262Z,16.50
2022-10-21T11:34:04.417Z,16.55
2022-10-21T11:35:04.318Z,16.58
2022-10-21T11:36:04.244Z,16.62
2022-10-21T11:37:04.229Z,16.64
2022-10-21T11:38:04.239Z,16.66
2022-10-21T11:39:04.198Z,16.72
2022-10-21T11:40:04.226Z,16.83
2022-10-21T11:41:04.212Z,16.84
2022-10-21T11:42:04.184Z,16.91
2022-10-21T11:43:04.228Z,16.98
2022-10-21T11:44:04.226Z,17.02
2022-10-21T11:45:04.174Z,17.07
2022-10-21T11:46:04.132Z,17.07
2022-10-21T11:47:04.133Z,17.10
2022-10-21T11:48:04.128Z,17.13
2022-10-21T11:49:04.147Z,17.16
2022-10-21T11:50:04.243Z,17.20
2022-10-21T11:51:06.114Z,17.23
2022-10-21T11:52:04.108Z,17.28
2022-10-21T11:53:04.138Z,17.31
2022-10-21T11:54:04.052Z,17.37
2022-10-21T11:55:10.426Z,17.41
2022-10-21T11:56:05.013Z,17.42
2022-10-21T11:57:04.009Z,17.49
2022-10-21T11:58:04.117Z,17.50
2022-10-21T11:59:04.002Z,17.52
2022-10-21T12:00:04.000Z,17.54
2022-10-21T12:01:03.995Z,17.57
2022-10-21T12:02:04.030Z,17.57
2022-10-21T12:03:03.995Z,17.65
2022-10-21T12:04:03.947Z,17.71
2022-10-21T12:05:03.928Z,17.75
2022-10-21T12:06:03.912Z,17.75
2022-10-21T12:07:07.643Z,17.78
2022-10-21T12:08:04.898Z,17.79
2022-10-21T12:09:03.883Z,17.84
2022-10-21T12:10:03.863Z,17.86
2022-10-21T12:11:03.848Z,17.84
2022-10-21T12:12:03.869Z,17.84
2022-10-21T12:13:03.829Z,17.86
2022-10-21T12:14:03.880Z,17.88
2022-10-21T12:15:03.821Z,17.88
2022-10-21T12:16:03.826Z,17.86
2022-10-21T12:17:03.818Z,17.86
2022-10-21T12:18:03.866Z,17.78
2022-10-21T12:19:03.818Z,17.75
2022-10-21T12:20:03.821Z,17.72
2022-10-21T12:21:03.778Z,17.72
2022-10-21T12:22:03.866Z,17.71
2022-10-21T12:23:03.744Z,17.69
2022-10-21T12:24:03.734Z,17.66
2022-10-21T12:25:03.782Z,17.66
2022-10-21T12:26:03.719Z,17.66
2022-10-21T12:27:03.856Z,17.66
2022-10-21T12:28:03.739Z,17.65
2022-10-21T12:29:03.668Z,17.66
2022-10-21T12:30:03.673Z,17.65
2022-10-21T12:31:03.649Z,17.65
2022-10-21T12:32:03.659Z,17.68
2022-10-21T12:33:03.665Z,17.71
2022-10-21T12:34:03.599Z,17.73
2022-10-21T12:35:03.587Z,17.78
2022-10-21T12:36:06.223Z,17.84
2022-10-21T12:37:03.601Z,17.88
2022-10-21T12:38:03.559Z,17.87
2022-10-21T12:39:03.542Z,17.88
2022-10-21T12:40:03.532Z,17.87
2022-10-21T12:41:03.552Z,17.86
2022-10-21T12:42:03.529Z,17.88
2022-10-21T12:43:03.660Z,17.86
2022-10-21T12:44:03.510Z,17.86
2022-10-21T12:45:03.512Z,17.84
2022-10-21T12:46:03.490Z,17.79
2022-10-21T12:47:03.480Z,17.80
2022-10-21T12:48:03.459Z,17.78
2022-10-21T12:49:03.444Z,17.78
2022-10-21T12:50:03.449Z,17.76
2022-10-21T12:51:03.450Z,17.78
2022-10-21T12:52:03.424Z,17.76
2022-10-21T12:53:03.410Z,17.76
2022-10-21T12:54:03.408Z,17.79
2022-10-21T12:55:03.409Z,17.84
2022-10-21T12:56:03.371Z,17.90